sensor_id;sensor_type;location;lat;lon;timestamp;P1;durP1;ratioP1;P2;durP2;ratioP2
44925;SDS011;30662;51.210;7.656;2022-07-23T00:00:43;17.10;;;14.73;;
44925;SDS011;30662;51.210;7.656;2022-07-23T00:03:09;18.50;;;14.48;;
44925;SDS011;30662;51.210;7.656;2022-07-23T00:05:35;19.50;;;16.00;;
44925;SDS011;30662;51.210;7.656;2022-07-23T00:08:03;20.73;;;15.68;;
44925;SDS011;30662;51.210;7.656;2022-07-23T00:10:29;20.73;;;16.38;;
44925;SDS011;30662;51.210;7.656;2022-07-23T00:12:55;22.23;;;16.45;;
44925;SDS011;30662;51.210;7.656;2022-07-23T00:15:21;20.08;;;16.85;;
44925;SDS011;30662;51.210;7.656;2022-07-23T00:17:47;23.23;;;16.20;;
44925;SDS011;30662;51.210;7.656;2022-07-23T00:20:13;19.85;;;16.20;;
44925;SDS011;30662;51.210;7.656;2022-07-23T00:23:12;18.75;;;15.60;;
44925;SDS011;30662;51.210;7.656;2022-07-23T00:25:31;23.45;;;17.27;;
44925;SDS011;30662;51.210;7.656;2022-07-23T00:27:58;22.60;;;16.92;;
44925;SDS011;30662;51.210;7.656;2022-07-23T00:30:25;25.23;;;16.67;;
44925;SDS011;30662;51.210;7.656;2022-07-23T00:32:55;22.73;;;17.95;;
44925;SDS011;30662;51.210;7.656;2022-07-23T00:35:23;24.75;;;18.63;;
44925;SDS011;30662;51.210;7.656;2022-07-23T00:37:50;20.80;;;16.98;;
44925;SDS011;30662;51.210;7.656;2022-07-23T00:40:16;21.42;;;16.67;;
44925;SDS011;30662;51.210;7.656;2022-07-23T00:42:42;19.27;;;16.27;;
44925;SDS011;30662;51.210;7.656;2022-07-23T00:45:08;22.63;;;17.17;;
44925;SDS011;30662;51.210;7.656;2022-07-23T00:47:35;19.48;;;16.90;;
44925;SDS011;30662;51.210;7.656;2022-07-23T00:50:02;25.85;;;18.60;;
44925;SDS011;30662;51.210;7.656;2022-07-23T00:52:30;24.35;;;18.30;;
44925;SDS011;30662;51.210;7.656;2022-07-23T00:54:57;23.65;;;19.77;;
44925;SDS011;30662;51.210;7.656;2022-07-23T00:57:24;21.92;;;17.30;;
44925;SDS011;30662;51.210;7.656;2022-07-23T00:59:54;24.85;;;19.35;;
44925;SDS011;30662;51.210;7.656;2022-07-23T01:02:20;24.98;;;18.92;;
44925;SDS011;30662;51.210;7.656;2022-07-23T01:04:46;22.55;;;16.67;;
44925;SDS011;30662;51.210;7.656;2022-07-23T01:07:12;20.92;;;16.52;;
44925;SDS011;30662;51.210;7.656;2022-07-23T01:09:37;22.58;;;17.60;;
44925;SDS011;30662;51.210;7.656;2022-07-23T01:12:04;22.48;;;18.40;;
44925;SDS011;30662;51.210;7.656;2022-07-23T01:14:30;24.30;;;19.55;;
44925;SDS011;30662;51.210;7.656;2022-07-23T01:16:56;34.65;;;21.25;;
44925;SDS011;30662;51.210;7.656;2022-07-23T01:19:22;29.33;;;21.88;;
44925;SDS011;30662;51.210;7.656;2022-07-23T01:21:49;27.60;;;21.38;;
44925;SDS011;30662;51.210;7.656;2022-07-23T01:24:17;27.38;;;21.75;;
44925;SDS011;30662;51.210;7.656;2022-07-23T01:26:47;27.67;;;21.10;;
44925;SDS011;30662;51.210;7.656;2022-07-23T01:29:14;30.52;;;23.00;;
44925;SDS011;30662;51.210;7.656;2022-07-23T01:31:40;27.17;;;22.05;;
44925;SDS011;30662;51.210;7.656;2022-07-23T01:34:07;25.38;;;21.00;;
44925;SDS011;30662;51.210;7.656;2022-07-23T01:36:33;26.52;;;21.02;;
44925;SDS011;30662;51.210;7.656;2022-07-23T01:39:00;26.10;;;20.75;;
44925;SDS011;30662;51.210;7.656;2022-07-23T01:41:28;26.55;;;20.70;;
44925;SDS011;30662;51.210;7.656;2022-07-23T01:43:54;24.40;;;18.40;;
44925;SDS011;30662;51.210;7.656;2022-07-23T01:46:20;24.48;;;17.95;;
44925;SDS011;30662;51.210;7.656;2022-07-23T01:48:46;25.75;;;18.88;;
44925;SDS011;30662;51.210;7.656;2022-07-23T01:51:12;23.83;;;18.52;;
44925;SDS011;30662;51.210;7.656;2022-07-23T01:53:38;23.23;;;18.05;;
44925;SDS011;30662;51.210;7.656;2022-07-23T01:56:04;25.60;;;18.52;;
44925;SDS011;30662;51.210;7.656;2022-07-23T01:58:30;22.60;;;18.88;;
44925;SDS011;30662;51.210;7.656;2022-07-23T02:00:56;23.92;;;18.83;;
44925;SDS011;30662;51.210;7.656;2022-07-23T02:03:22;27.02;;;19.33;;
44925;SDS011;30662;51.210;7.656;2022-07-23T02:05:49;24.45;;;20.60;;
44925;SDS011;30662;51.210;7.656;2022-07-23T02:08:15;27.63;;;21.48;;
44925;SDS011;30662;51.210;7.656;2022-07-23T02:10:41;25.83;;;21.05;;
44925;SDS011;30662;51.210;7.656;2022-07-23T02:13:07;28.05;;;21.10;;
44925;SDS011;30662;51.210;7.656;2022-07-23T02:15:33;29.60;;;22.50;;
44925;SDS011;30662;51.210;7.656;2022-07-23T02:17:59;29.02;;;22.08;;
44925;SDS011;30662;51.210;7.656;2022-07-23T02:20:25;28.63;;;21.63;;
44925;SDS011;30662;51.210;7.656;2022-07-23T02:22:51;28.92;;;20.58;;
44925;SDS011;30662;51.210;7.656;2022-07-23T02:25:17;27.40;;;20.20;;
44925;SDS011;30662;51.210;7.656;2022-07-23T02:27:43;27.17;;;20.67;;
44925;SDS011;30662;51.210;7.656;2022-07-23T02:30:09;30.60;;;21.83;;
44925;SDS011;30662;51.210;7.656;2022-07-23T02:32:36;27.92;;;21.65;;
44925;SDS011;30662;51.210;7.656;2022-07-23T02:35:03;26.33;;;21.27;;
44925;SDS011;30662;51.210;7.656;2022-07-23T02:37:29;28.05;;;20.85;;
44925;SDS011;30662;51.210;7.656;2022-07-23T02:39:55;26.92;;;21.48;;
44925;SDS011;30662;51.210;7.656;2022-07-23T02:42:21;27.33;;;22.08;;
44925;SDS011;30662;51.210;7.656;2022-07-23T02:44:49;27.73;;;21.23;;
44925;SDS011;30662;51.210;7.656;2022-07-23T02:47:16;27.27;;;20.52;;
44925;SDS011;30662;51.210;7.656;2022-07-23T02:49:42;26.88;;;22.00;;
44925;SDS011;30662;51.210;7.656;2022-07-23T02:52:08;28.25;;;21.42;;
44925;SDS011;30662;51.210;7.656;2022-07-23T02:54:36;33.67;;;23.00;;
44925;SDS011;30662;51.210;7.656;2022-07-23T02:57:03;30.38;;;22.13;;
44925;SDS011;30662;51.210;7.656;2022-07-23T02:59:29;29.85;;;21.70;;
44925;SDS011;30662;51.210;7.656;2022-07-23T03:01:55;34.72;;;24.80;;
44925;SDS011;30662;51.210;7.656;2022-07-23T03:04:21;32.70;;;21.95;;
44925;SDS011;30662;51.210;7.656;2022-07-23T03:06:47;31.80;;;23.33;;
44925;SDS011;30662;51.210;7.656;2022-07-23T03:09:13;30.42;;;23.48;;
44925;SDS011;30662;51.210;7.656;2022-07-23T03:11:39;28.98;;;21.70;;
44925;SDS011;30662;51.210;7.656;2022-07-23T03:14:05;28.63;;;22.58;;
44925;SDS011;30662;51.210;7.656;2022-07-23T03:16:32;27.80;;;21.38;;
44925;SDS011;30662;51.210;7.656;2022-07-23T03:18:58;28.20;;;22.17;;
44925;SDS011;30662;51.210;7.656;2022-07-23T03:21:24;29.08;;;22.13;;
44925;SDS011;30662;51.210;7.656;2022-07-23T03:23:50;28.60;;;21.65;;
44925;SDS011;30662;51.210;7.656;2022-07-23T03:26:16;30.33;;;21.15;;
44925;SDS011;30662;51.210;7.656;2022-07-23T03:28:42;31.25;;;22.70;;
44925;SDS011;30662;51.210;7.656;2022-07-23T03:31:08;30.35;;;22.30;;
44925;SDS011;30662;51.210;7.656;2022-07-23T03:33:34;25.65;;;20.80;;
44925;SDS011;30662;51.210;7.656;2022-07-23T03:36:00;29.08;;;22.63;;
44925;SDS011;30662;51.210;7.656;2022-07-23T03:38:26;28.27;;;21.23;;
44925;SDS011;30662;51.210;7.656;2022-07-23T03:40:52;28.77;;;22.55;;
44925;SDS011;30662;51.210;7.656;2022-07-23T03:43:18;29.85;;;23.27;;
44925;SDS011;30662;51.210;7.656;2022-07-23T03:45:44;28.65;;;22.20;;
44925;SDS011;30662;51.210;7.656;2022-07-23T03:48:10;30.98;;;22.70;;
44925;SDS011;30662;51.210;7.656;2022-07-23T03:50:36;28.08;;;22.00;;
44925;SDS011;30662;51.210;7.656;2022-07-23T03:53:02;26.77;;;22.05;;
44925;SDS011;30662;51.210;7.656;2022-07-23T03:55:28;33.63;;;24.05;;
44925;SDS011;30662;51.210;7.656;2022-07-23T03:57:54;28.73;;;22.95;;
44925;SDS011;30662;51.210;7.656;2022-07-23T04:00:20;31.20;;;23.40;;
44925;SDS011;30662;51.210;7.656;2022-07-23T04:02:46;32.72;;;24.42;;
44925;SDS011;30662;51.210;7.656;2022-07-23T04:05:12;32.95;;;23.77;;
44925;SDS011;30662;51.210;7.656;2022-07-23T04:07:38;30.75;;;24.80;;
44925;SDS011;30662;51.210;7.656;2022-07-23T04:10:04;29.35;;;23.48;;
44925;SDS011;30662;51.210;7.656;2022-07-23T04:12:30;36.33;;;26.15;;
44925;SDS011;30662;51.210;7.656;2022-07-23T04:14:56;31.75;;;23.52;;
44925;SDS011;30662;51.210;7.656;2022-07-23T04:17:22;30.98;;;22.95;;
44925;SDS011;30662;51.210;7.656;2022-07-23T04:19:47;29.88;;;22.63;;
44925;SDS011;30662;51.210;7.656;2022-07-23T04:22:19;26.95;;;22.33;;
44925;SDS011;30662;51.210;7.656;2022-07-23T04:24:45;27.58;;;22.90;;
44925;SDS011;30662;51.210;7.656;2022-07-23T04:27:11;28.98;;;22.10;;
44925;SDS011;30662;51.210;7.656;2022-07-23T04:29:37;29.73;;;22.92;;
44925;SDS011;30662;51.210;7.656;2022-07-23T04:32:02;29.35;;;21.95;;
44925;SDS011;30662;51.210;7.656;2022-07-23T04:34:29;27.25;;;21.13;;
44925;SDS011;30662;51.210;7.656;2022-07-23T04:36:54;28.83;;;21.80;;
44925;SDS011;30662;51.210;7.656;2022-07-23T04:39:20;28.92;;;20.90;;
44925;SDS011;30662;51.210;7.656;2022-07-23T04:41:46;28.55;;;21.80;;
44925;SDS011;30662;51.210;7.656;2022-07-23T04:44:12;30.95;;;22.98;;
44925;SDS011;30662;51.210;7.656;2022-07-23T04:46:38;27.92;;;22.15;;
44925;SDS011;30662;51.210;7.656;2022-07-23T04:49:04;27.38;;;21.67;;
44925;SDS011;30662;51.210;7.656;2022-07-23T04:51:31;27.45;;;21.98;;
44925;SDS011;30662;51.210;7.656;2022-07-23T04:53:57;31.23;;;22.13;;
44925;SDS011;30662;51.210;7.656;2022-07-23T04:56:23;29.35;;;22.08;;
44925;SDS011;30662;51.210;7.656;2022-07-23T04:58:49;28.23;;;22.95;;
44925;SDS011;30662;51.210;7.656;2022-07-23T05:01:15;28.80;;;20.58;;
44925;SDS011;30662;51.210;7.656;2022-07-23T05:03:41;22.35;;;19.10;;
44925;SDS011;30662;51.210;7.656;2022-07-23T05:06:07;24.60;;;18.45;;
44925;SDS011;30662;51.210;7.656;2022-07-23T05:08:32;27.20;;;19.92;;
44925;SDS011;30662;51.210;7.656;2022-07-23T05:10:58;24.58;;;18.88;;
44925;SDS011;30662;51.210;7.656;2022-07-23T05:13:24;21.08;;;17.63;;
44925;SDS011;30662;51.210;7.656;2022-07-23T05:15:50;23.15;;;18.73;;
44925;SDS011;30662;51.210;7.656;2022-07-23T05:18:16;21.73;;;18.33;;
44925;SDS011;30662;51.210;7.656;2022-07-23T05:20:42;23.63;;;17.88;;
44925;SDS011;30662;51.210;7.656;2022-07-23T05:23:08;22.50;;;17.83;;
44925;SDS011;30662;51.210;7.656;2022-07-23T05:25:35;22.67;;;17.70;;
44925;SDS011;30662;51.210;7.656;2022-07-23T05:28:01;19.30;;;17.05;;
44925;SDS011;30662;51.210;7.656;2022-07-23T05:30:28;18.52;;;16.60;;
44925;SDS011;30662;51.210;7.656;2022-07-23T05:32:54;19.38;;;16.20;;
44925;SDS011;30662;51.210;7.656;2022-07-23T05:35:20;16.80;;;14.48;;
44925;SDS011;30662;51.210;7.656;2022-07-23T05:37:46;16.60;;;14.30;;
44925;SDS011;30662;51.210;7.656;2022-07-23T05:40:12;17.40;;;13.63;;
44925;SDS011;30662;51.210;7.656;2022-07-23T05:42:38;17.35;;;14.65;;
44925;SDS011;30662;51.210;7.656;2022-07-23T05:45:06;18.67;;;14.95;;
44925;SDS011;30662;51.210;7.656;2022-07-23T05:47:46;17.73;;;14.15;;
44925;SDS011;30662;51.210;7.656;2022-07-23T05:50:13;18.27;;;15.02;;
44925;SDS011;30662;51.210;7.656;2022-07-23T05:52:40;19.88;;;16.20;;
44925;SDS011;30662;51.210;7.656;2022-07-23T05:55:07;18.60;;;14.30;;
44925;SDS011;30662;51.210;7.656;2022-07-23T05:57:34;18.00;;;14.90;;
44925;SDS011;30662;51.210;7.656;2022-07-23T06:00:01;16.88;;;14.55;;
44925;SDS011;30662;51.210;7.656;2022-07-23T06:02:28;17.83;;;13.85;;
44925;SDS011;30662;51.210;7.656;2022-07-23T06:04:53;18.50;;;14.38;;
44925;SDS011;30662;51.210;7.656;2022-07-23T06:07:19;18.88;;;14.30;;
44925;SDS011;30662;51.210;7.656;2022-07-23T06:09:45;16.92;;;14.57;;
44925;SDS011;30662;51.210;7.656;2022-07-23T06:12:12;17.30;;;13.10;;
44925;SDS011;30662;51.210;7.656;2022-07-23T06:14:38;19.45;;;13.02;;
44925;SDS011;30662;51.210;7.656;2022-07-23T06:17:04;16.40;;;13.75;;
44925;SDS011;30662;51.210;7.656;2022-07-23T06:19:30;15.13;;;11.98;;
44925;SDS011;30662;51.210;7.656;2022-07-23T06:21:56;15.40;;;10.45;;
44925;SDS011;30662;51.210;7.656;2022-07-23T06:24:22;16.17;;;11.27;;
44925;SDS011;30662;51.210;7.656;2022-07-23T06:26:48;13.38;;;11.15;;
44925;SDS011;30662;51.210;7.656;2022-07-23T06:29:13;16.00;;;12.82;;
44925;SDS011;30662;51.210;7.656;2022-07-23T06:31:39;12.90;;;11.23;;
44925;SDS011;30662;51.210;7.656;2022-07-23T06:34:05;11.75;;;9.77;;
44925;SDS011;30662;51.210;7.656;2022-07-23T06:36:31;11.80;;;9.82;;
44925;SDS011;30662;51.210;7.656;2022-07-23T06:38:57;12.68;;;9.68;;
44925;SDS011;30662;51.210;7.656;2022-07-23T06:41:23;10.70;;;9.20;;
44925;SDS011;30662;51.210;7.656;2022-07-23T06:43:49;9.23;;;7.60;;
44925;SDS011;30662;51.210;7.656;2022-07-23T06:46:15;9.82;;;7.88;;
44925;SDS011;30662;51.210;7.656;2022-07-23T06:48:41;11.77;;;8.27;;
44925;SDS011;30662;51.210;7.656;2022-07-23T06:51:07;9.95;;;8.35;;
44925;SDS011;30662;51.210;7.656;2022-07-23T06:53:33;11.30;;;8.50;;
44925;SDS011;30662;51.210;7.656;2022-07-23T06:55:59;13.77;;;8.98;;
44925;SDS011;30662;51.210;7.656;2022-07-23T06:58:25;9.57;;;8.18;;
44925;SDS011;30662;51.210;7.656;2022-07-23T07:00:50;9.35;;;8.10;;
44925;SDS011;30662;51.210;7.656;2022-07-23T07:03:17;9.80;;;7.38;;
44925;SDS011;30662;51.210;7.656;2022-07-23T07:05:44;8.98;;;7.18;;
44925;SDS011;30662;51.210;7.656;2022-07-23T07:08:10;8.13;;;5.95;;
44925;SDS011;30662;51.210;7.656;2022-07-23T07:10:35;8.23;;;6.45;;
44925;SDS011;30662;51.210;7.656;2022-07-23T07:13:01;7.05;;;5.35;;
44925;SDS011;30662;51.210;7.656;2022-07-23T07:15:27;11.23;;;7.85;;
44925;SDS011;30662;51.210;7.656;2022-07-23T07:17:53;9.60;;;6.30;;
44925;SDS011;30662;51.210;7.656;2022-07-23T07:20:19;8.32;;;6.18;;
44925;SDS011;30662;51.210;7.656;2022-07-23T07:22:45;7.38;;;6.30;;
44925;SDS011;30662;51.210;7.656;2022-07-23T07:25:11;9.60;;;5.70;;
44925;SDS011;30662;51.210;7.656;2022-07-23T07:27:37;9.13;;;5.88;;
44925;SDS011;30662;51.210;7.656;2022-07-23T07:30:03;9.10;;;6.65;;
44925;SDS011;30662;51.210;7.656;2022-07-23T07:32:30;7.72;;;5.45;;
44925;SDS011;30662;51.210;7.656;2022-07-23T07:35:17;8.77;;;5.75;;
44925;SDS011;30662;51.210;7.656;2022-07-23T07:37:43;8.15;;;5.95;;
44925;SDS011;30662;51.210;7.656;2022-07-23T07:40:09;7.78;;;6.97;;
44925;SDS011;30662;51.210;7.656;2022-07-23T07:42:43;9.40;;;5.90;;
44925;SDS011;30662;51.210;7.656;2022-07-23T07:45:10;6.97;;;6.22;;
44925;SDS011;30662;51.210;7.656;2022-07-23T07:47:36;10.00;;;6.07;;
44925;SDS011;30662;51.210;7.656;2022-07-23T07:50:02;11.18;;;6.47;;
44925;SDS011;30662;51.210;7.656;2022-07-23T07:52:29;9.25;;;7.05;;
44925;SDS011;30662;51.210;7.656;2022-07-23T07:54:55;7.22;;;6.03;;
44925;SDS011;30662;51.210;7.656;2022-07-23T07:57:21;8.18;;;6.22;;
44925;SDS011;30662;51.210;7.656;2022-07-23T07:59:47;9.05;;;6.55;;
44925;SDS011;30662;51.210;7.656;2022-07-23T08:02:17;10.10;;;6.80;;
44925;SDS011;30662;51.210;7.656;2022-07-23T08:04:43;9.82;;;6.68;;
44925;SDS011;30662;51.210;7.656;2022-07-23T08:07:10;8.40;;;7.20;;
44925;SDS011;30662;51.210;7.656;2022-07-23T08:09:36;6.88;;;5.75;;
44925;SDS011;30662;51.210;7.656;2022-07-23T08:12:01;7.47;;;6.03;;
44925;SDS011;30662;51.210;7.656;2022-07-23T08:14:27;7.20;;;4.82;;
44925;SDS011;30662;51.210;7.656;2022-07-23T08:16:53;8.18;;;6.28;;
44925;SDS011;30662;51.210;7.656;2022-07-23T08:19:39;9.48;;;5.85;;
44925;SDS011;30662;51.210;7.656;2022-07-23T08:22:04;7.22;;;6.28;;
44925;SDS011;30662;51.210;7.656;2022-07-23T08:24:30;9.18;;;6.60;;
44925;SDS011;30662;51.210;7.656;2022-07-23T08:26:56;8.40;;;5.72;;
44925;SDS011;30662;51.210;7.656;2022-07-23T08:29:22;6.75;;;5.55;;
44925;SDS011;30662;51.210;7.656;2022-07-23T08:31:52;6.65;;;5.65;;
44925;SDS011;30662;51.210;7.656;2022-07-23T08:34:19;9.98;;;5.95;;
44925;SDS011;30662;51.210;7.656;2022-07-23T08:36:44;5.85;;;5.25;;
44925;SDS011;30662;51.210;7.656;2022-07-23T08:39:10;10.52;;;6.28;;
44925;SDS011;30662;51.210;7.656;2022-07-23T08:41:37;7.13;;;5.82;;
44925;SDS011;30662;51.210;7.656;2022-07-23T08:44:07;7.93;;;5.50;;
44925;SDS011;30662;51.210;7.656;2022-07-23T08:46:34;10.88;;;6.18;;
44925;SDS011;30662;51.210;7.656;2022-07-23T08:49:08;7.07;;;6.30;;
44925;SDS011;30662;51.210;7.656;2022-07-23T08:51:34;8.93;;;6.78;;
44925;SDS011;30662;51.210;7.656;2022-07-23T08:54:00;6.30;;;5.68;;
44925;SDS011;30662;51.210;7.656;2022-07-23T08:56:27;6.93;;;5.95;;
44925;SDS011;30662;51.210;7.656;2022-07-23T08:58:53;8.93;;;6.13;;
44925;SDS011;30662;51.210;7.656;2022-07-23T09:01:20;8.95;;;6.10;;
44925;SDS011;30662;51.210;7.656;2022-07-23T09:03:46;6.90;;;6.25;;
44925;SDS011;30662;51.210;7.656;2022-07-23T09:06:12;9.75;;;5.82;;
44925;SDS011;30662;51.210;7.656;2022-07-23T09:08:41;8.32;;;5.65;;
44925;SDS011;30662;51.210;7.656;2022-07-23T09:11:09;7.97;;;6.05;;
44925;SDS011;30662;51.210;7.656;2022-07-23T09:13:49;10.98;;;5.82;;
44925;SDS011;30662;51.210;7.656;2022-07-23T09:16:29;10.95;;;8.73;;
44925;SDS011;30662;51.210;7.656;2022-07-23T09:18:57;7.25;;;6.50;;
44925;SDS011;30662;51.210;7.656;2022-07-23T09:21:31;7.70;;;6.15;;
44925;SDS011;30662;51.210;7.656;2022-07-23T09:26:35;9.02;;;5.80;;
44925;SDS011;30662;51.210;7.656;2022-07-23T09:31:49;10.10;;;7.40;;
44925;SDS011;30662;51.210;7.656;2022-07-23T09:34:18;6.88;;;5.80;;
44925;SDS011;30662;51.210;7.656;2022-07-23T09:36:44;10.82;;;7.72;;
44925;SDS011;30662;51.210;7.656;2022-07-23T09:39:11;10.35;;;8.18;;
44925;SDS011;30662;51.210;7.656;2022-07-23T09:41:39;10.70;;;7.75;;
44925;SDS011;30662;51.210;7.656;2022-07-23T09:44:11;8.20;;;6.95;;
44925;SDS011;30662;51.210;7.656;2022-07-23T09:46:42;8.23;;;6.72;;
44925;SDS011;30662;51.210;7.656;2022-07-23T09:49:10;10.15;;;7.25;;
44925;SDS011;30662;51.210;7.656;2022-07-23T09:51:44;6.95;;;6.25;;
44925;SDS011;30662;51.210;7.656;2022-07-23T09:54:20;9.98;;;7.50;;
44925;SDS011;30662;51.210;7.656;2022-07-23T09:56:51;9.10;;;8.00;;
44925;SDS011;30662;51.210;7.656;2022-07-23T09:59:19;9.52;;;7.90;;
44925;SDS011;30662;51.210;7.656;2022-07-23T10:01:58;7.00;;;6.32;;
44925;SDS011;30662;51.210;7.656;2022-07-23T10:04:26;12.63;;;7.32;;
44925;SDS011;30662;51.210;7.656;2022-07-23T10:06:54;8.02;;;7.22;;
44925;SDS011;30662;51.210;7.656;2022-07-23T10:09:26;8.60;;;7.80;;
44925;SDS011;30662;51.210;7.656;2022-07-23T10:11:55;7.93;;;7.13;;
44925;SDS011;30662;51.210;7.656;2022-07-23T10:14:47;8.15;;;6.93;;
44925;SDS011;30662;51.210;7.656;2022-07-23T10:17:13;6.85;;;6.20;;
44925;SDS011;30662;51.210;7.656;2022-07-23T10:19:39;8.57;;;7.68;;
44925;SDS011;30662;51.210;7.656;2022-07-23T10:22:06;8.35;;;7.55;;
44925;SDS011;30662;51.210;7.656;2022-07-23T10:30:09;6.75;;;5.80;;
44925;SDS011;30662;51.210;7.656;2022-07-23T10:38:37;6.65;;;5.70;;
44925;SDS011;30662;51.210;7.656;2022-07-23T10:41:09;7.20;;;6.50;;
44925;SDS011;30662;51.210;7.656;2022-07-23T10:43:35;9.10;;;6.20;;
44925;SDS011;30662;51.210;7.656;2022-07-23T10:46:20;8.95;;;7.95;;
44925;SDS011;30662;51.210;7.656;2022-07-23T10:49:24;7.63;;;6.75;;
44925;SDS011;30662;51.210;7.656;2022-07-23T10:54:52;7.68;;;6.88;;
44925;SDS011;30662;51.210;7.656;2022-07-23T10:57:24;8.00;;;6.68;;
44925;SDS011;30662;51.210;7.656;2022-07-23T11:04:58;7.25;;;6.55;;
44925;SDS011;30662;51.210;7.656;2022-07-23T11:07:25;7.90;;;7.10;;
44925;SDS011;30662;51.210;7.656;2022-07-23T11:09:52;8.57;;;6.10;;
44925;SDS011;30662;51.210;7.656;2022-07-23T11:17:33;7.50;;;6.40;;
44925;SDS011;30662;51.210;7.656;2022-07-23T11:25:05;6.68;;;5.80;;
44925;SDS011;30662;51.210;7.656;2022-07-23T11:27:40;6.05;;;5.13;;
44925;SDS011;30662;51.210;7.656;2022-07-23T11:30:09;6.03;;;5.05;;
44925;SDS011;30662;51.210;7.656;2022-07-23T11:35:34;6.28;;;5.10;;
44925;SDS011;30662;51.210;7.656;2022-07-23T11:38:04;6.03;;;5.43;;
44925;SDS011;30662;51.210;7.656;2022-07-23T11:40:35;6.78;;;5.50;;
44925;SDS011;30662;51.210;7.656;2022-07-23T11:43:02;10.18;;;5.85;;
44925;SDS011;30662;51.210;7.656;2022-07-23T11:45:33;6.72;;;5.97;;
44925;SDS011;30662;51.210;7.656;2022-07-23T11:48:00;14.98;;;5.32;;
44925;SDS011;30662;51.210;7.656;2022-07-23T11:50:27;6.03;;;4.45;;
44925;SDS011;30662;51.210;7.656;2022-07-23T11:52:54;5.13;;;4.55;;
44925;SDS011;30662;51.210;7.656;2022-07-23T11:55:20;4.95;;;4.50;;
44925;SDS011;30662;51.210;7.656;2022-07-23T11:57:46;8.68;;;5.07;;
44925;SDS011;30662;51.210;7.656;2022-07-23T12:00:14;6.45;;;5.07;;
44925;SDS011;30662;51.210;7.656;2022-07-23T12:02:42;7.65;;;5.00;;
44925;SDS011;30662;51.210;7.656;2022-07-23T12:05:20;7.60;;;4.43;;
44925;SDS011;30662;51.210;7.656;2022-07-23T12:07:49;5.22;;;4.72;;
44925;SDS011;30662;51.210;7.656;2022-07-23T12:10:17;5.75;;;4.50;;
44925;SDS011;30662;51.210;7.656;2022-07-23T12:12:49;6.28;;;4.00;;
44925;SDS011;30662;51.210;7.656;2022-07-23T12:15:24;4.60;;;4.20;;
44925;SDS011;30662;51.210;7.656;2022-07-23T12:17:57;5.88;;;3.80;;
44925;SDS011;30662;51.210;7.656;2022-07-23T12:20:24;7.00;;;3.42;;
44925;SDS011;30662;51.210;7.656;2022-07-23T12:22:53;4.22;;;3.42;;
44925;SDS011;30662;51.210;7.656;2022-07-23T12:25:23;4.53;;;4.10;;
44925;SDS011;30662;51.210;7.656;2022-07-23T12:28:01;5.40;;;4.90;;
44925;SDS011;30662;51.210;7.656;2022-07-23T12:30:29;5.18;;;4.05;;
44925;SDS011;30662;51.210;7.656;2022-07-23T12:33:00;4.45;;;3.25;;
44925;SDS011;30662;51.210;7.656;2022-07-23T12:35:31;4.68;;;3.88;;
44925;SDS011;30662;51.210;7.656;2022-07-23T12:38:08;6.07;;;3.95;;
44925;SDS011;30662;51.210;7.656;2022-07-23T12:40:37;4.93;;;3.40;;
44925;SDS011;30662;51.210;7.656;2022-07-23T12:43:09;4.05;;;3.50;;
44925;SDS011;30662;51.210;7.656;2022-07-23T12:48:17;4.85;;;4.22;;
44925;SDS011;30662;51.210;7.656;2022-07-23T12:53:24;3.53;;;3.22;;
44925;SDS011;30662;51.210;7.656;2022-07-23T12:56:04;6.47;;;4.40;;
44925;SDS011;30662;51.210;7.656;2022-07-23T12:58:41;8.60;;;4.22;;
44925;SDS011;30662;51.210;7.656;2022-07-23T13:06:42;6.90;;;3.85;;
44925;SDS011;30662;51.210;7.656;2022-07-23T13:09:25;4.35;;;3.95;;
44925;SDS011;30662;51.210;7.656;2022-07-23T13:11:58;4.82;;;4.10;;
44925;SDS011;30662;51.210;7.656;2022-07-23T13:14:25;4.10;;;3.67;;
44925;SDS011;30662;51.210;7.656;2022-07-23T13:16:52;5.65;;;3.80;;
44925;SDS011;30662;51.210;7.656;2022-07-23T13:19:22;5.03;;;4.35;;
44925;SDS011;30662;51.210;7.656;2022-07-23T13:21:50;6.20;;;3.60;;
44925;SDS011;30662;51.210;7.656;2022-07-23T13:24:16;5.25;;;3.95;;
44925;SDS011;30662;51.210;7.656;2022-07-23T13:26:42;4.45;;;3.55;;
44925;SDS011;30662;51.210;7.656;2022-07-23T13:29:08;5.53;;;3.83;;
44925;SDS011;30662;51.210;7.656;2022-07-23T13:31:36;4.15;;;3.75;;
44925;SDS011;30662;51.210;7.656;2022-07-23T13:34:03;4.18;;;3.78;;
44925;SDS011;30662;51.210;7.656;2022-07-23T13:36:30;5.20;;;4.10;;
44925;SDS011;30662;51.210;7.656;2022-07-23T13:38:56;7.57;;;4.70;;
44925;SDS011;30662;51.210;7.656;2022-07-23T13:41:22;5.30;;;3.83;;
44925;SDS011;30662;51.210;7.656;2022-07-23T13:43:51;4.20;;;3.85;;
44925;SDS011;30662;51.210;7.656;2022-07-23T13:46:17;6.13;;;3.80;;
44925;SDS011;30662;51.210;7.656;2022-07-23T13:48:46;5.63;;;3.70;;
44925;SDS011;30662;51.210;7.656;2022-07-23T13:51:13;4.35;;;3.70;;
44925;SDS011;30662;51.210;7.656;2022-07-23T13:53:39;6.13;;;4.13;;
44925;SDS011;30662;51.210;7.656;2022-07-23T13:56:06;9.30;;;5.30;;
44925;SDS011;30662;51.210;7.656;2022-07-23T13:58:32;5.43;;;4.80;;
44925;SDS011;30662;51.210;7.656;2022-07-23T14:00:58;4.40;;;3.92;;
44925;SDS011;30662;51.210;7.656;2022-07-23T14:03:23;5.00;;;4.30;;
44925;SDS011;30662;51.210;7.656;2022-07-23T14:05:50;5.32;;;4.50;;
44925;SDS011;30662;51.210;7.656;2022-07-23T14:08:19;4.68;;;4.07;;
44925;SDS011;30662;51.210;7.656;2022-07-23T14:10:47;4.38;;;3.97;;
44925;SDS011;30662;51.210;7.656;2022-07-23T14:13:13;4.32;;;4.03;;
44925;SDS011;30662;51.210;7.656;2022-07-23T14:15:39;6.05;;;3.92;;
44925;SDS011;30662;51.210;7.656;2022-07-23T14:18:06;3.92;;;3.47;;
44925;SDS011;30662;51.210;7.656;2022-07-23T14:20:32;4.07;;;3.65;;
44925;SDS011;30662;51.210;7.656;2022-07-23T14:22:59;3.55;;;3.25;;
44925;SDS011;30662;51.210;7.656;2022-07-23T14:25:29;5.95;;;3.55;;
44925;SDS011;30662;51.210;7.656;2022-07-23T14:27:55;6.00;;;3.83;;
44925;SDS011;30662;51.210;7.656;2022-07-23T14:30:21;5.60;;;3.35;;
44925;SDS011;30662;51.210;7.656;2022-07-23T14:32:49;4.40;;;3.30;;
44925;SDS011;30662;51.210;7.656;2022-07-23T14:35:15;4.70;;;3.45;;
44925;SDS011;30662;51.210;7.656;2022-07-23T14:37:45;4.05;;;3.20;;
44925;SDS011;30662;51.210;7.656;2022-07-23T14:40:11;4.38;;;3.17;;
44925;SDS011;30662;51.210;7.656;2022-07-23T14:42:37;3.60;;;3.30;;
44925;SDS011;30662;51.210;7.656;2022-07-23T14:45:03;5.95;;;2.78;;
44925;SDS011;30662;51.210;7.656;2022-07-23T14:47:35;4.05;;;2.80;;
44925;SDS011;30662;51.210;7.656;2022-07-23T14:50:01;2.90;;;2.70;;
44925;SDS011;30662;51.210;7.656;2022-07-23T14:52:27;4.78;;;2.83;;
44925;SDS011;30662;51.210;7.656;2022-07-23T14:54:53;6.60;;;3.00;;
44925;SDS011;30662;51.210;7.656;2022-07-23T14:57:19;4.28;;;3.08;;
44925;SDS011;30662;51.210;7.656;2022-07-23T14:59:52;5.03;;;2.83;;
44925;SDS011;30662;51.210;7.656;2022-07-23T15:02:20;3.75;;;2.90;;
44925;SDS011;30662;51.210;7.656;2022-07-23T15:04:46;4.03;;;2.40;;
44925;SDS011;30662;51.210;7.656;2022-07-23T15:07:12;5.68;;;2.10;;
44925;SDS011;30662;51.210;7.656;2022-07-23T15:09:38;4.88;;;2.35;;
44925;SDS011;30662;51.210;7.656;2022-07-23T15:12:04;4.18;;;2.22;;
44925;SDS011;30662;51.210;7.656;2022-07-23T15:14:33;5.32;;;3.08;;
44925;SDS011;30662;51.210;7.656;2022-07-23T15:17:00;3.75;;;2.10;;
44925;SDS011;30662;51.210;7.656;2022-07-23T15:19:26;2.65;;;2.30;;
44925;SDS011;30662;51.210;7.656;2022-07-23T15:21:56;4.00;;;2.67;;
44925;SDS011;30662;51.210;7.656;2022-07-23T15:24:22;3.05;;;2.47;;
44925;SDS011;30662;51.210;7.656;2022-07-23T15:26:47;4.78;;;2.47;;